Terminal Aerodrome Forecast
Issued by NWS Twin Cities, MN

Home | Current Version | Previous Version | Text Only | Print | Product List | Glossary Off
Versions: 1 2 3 4 5 6 7 8 9 10 11 12 13 14 15 16 17 18 19

000
FTUS43 KMPX 281120
TAFEAU
TAF
KEAU 281120Z 2812/2912 VRB03KT 1/2SM FG VCSH OVC003
     FM281400 15004KT 4SM -SHRA BR OVC015
     FM281900 19009KT P6SM VCSH SCT020 BKN050 PROB30 2823/2902 5SM
      -TSRA OVC030CB
     FM290800 21003KT 2SM BR SCT003 OVC012=

USA.gov is the U.S. government's official web portal to all federal, state and local government web resources and services.